sensor_id;sensor_type;location;lat;lon;timestamp;temperature;humidity
68719;DHT22;55696;52.138;5.444;2022-07-06T00:01:52;17.70;57.00
68719;DHT22;55696;52.138;5.444;2022-07-06T00:04:19;17.60;57.00
68719;DHT22;55696;52.138;5.444;2022-07-06T00:06:46;17.60;57.10
68719;DHT22;55696;52.138;5.444;2022-07-06T00:09:13;17.50;57.10
68719;DHT22;55696;52.138;5.444;2022-07-06T00:11:40;17.60;57.40
68719;DHT22;55696;52.138;5.444;2022-07-06T00:14:07;17.60;57.40
68719;DHT22;55696;52.138;5.444;2022-07-06T00:16:33;17.50;57.30
68719;DHT22;55696;52.138;5.444;2022-07-06T00:19:00;17.60;57.40
68719;DHT22;55696;52.138;5.444;2022-07-06T00:21:27;17.60;57.30
68719;DHT22;55696;52.138;5.444;2022-07-06T00:23:54;17.70;57.30
68719;DHT22;55696;52.138;5.444;2022-07-06T00:26:21;17.60;57.40
68719;DHT22;55696;52.138;5.444;2022-07-06T00:28:48;17.60;57.30
68719;DHT22;55696;52.138;5.444;2022-07-06T00:31:15;17.50;57.20
68719;DHT22;55696;52.138;5.444;2022-07-06T00:33:42;17.40;57.40
68719;DHT22;55696;52.138;5.444;2022-07-06T00:36:10;17.40;57.70
68719;DHT22;55696;52.138;5.444;2022-07-06T00:38:36;17.40;57.60
68719;DHT22;55696;52.138;5.444;2022-07-06T00:41:03;17.40;57.60
68719;DHT22;55696;52.138;5.444;2022-07-06T00:43:54;17.30;57.80
68719;DHT22;55696;52.138;5.444;2022-07-06T00:46:28;17.30;58.60
68719;DHT22;55696;52.138;5.444;2022-07-06T00:48:57;17.20;58.60
68719;DHT22;55696;52.138;5.444;2022-07-06T00:51:29;17.30;58.20
68719;DHT22;55696;52.138;5.444;2022-07-06T00:54:03;17.20;58.60
68719;DHT22;55696;52.138;5.444;2022-07-06T00:56:31;16.90;58.70
68719;DHT22;55696;52.138;5.444;2022-07-06T00:59:00;17.20;58.40
68719;DHT22;55696;52.138;5.444;2022-07-06T01:01:28;17.00;58.70
68719;DHT22;55696;52.138;5.444;2022-07-06T01:03:55;17.10;58.40
68719;DHT22;55696;52.138;5.444;2022-07-06T01:06:22;17.00;58.50
68719;DHT22;55696;52.138;5.444;2022-07-06T01:08:49;17.00;58.60
68719;DHT22;55696;52.138;5.444;2022-07-06T01:11:18;17.00;58.90
68719;DHT22;55696;52.138;5.444;2022-07-06T01:13:47;16.80;59.30
68719;DHT22;55696;52.138;5.444;2022-07-06T01:16:14;16.80;59.10
68719;DHT22;55696;52.138;5.444;2022-07-06T01:18:41;16.90;59.10
68719;DHT22;55696;52.138;5.444;2022-07-06T01:21:13;16.80;60.30
68719;DHT22;55696;52.138;5.444;2022-07-06T01:23:42;16.70;61.00
68719;DHT22;55696;52.138;5.444;2022-07-06T01:26:11;16.80;59.70
68719;DHT22;55696;52.138;5.444;2022-07-06T01:28:38;16.80;59.80
68719;DHT22;55696;52.138;5.444;2022-07-06T01:31:05;16.80;59.40
68719;DHT22;55696;52.138;5.444;2022-07-06T01:33:32;16.80;59.20
68719;DHT22;55696;52.138;5.444;2022-07-06T01:35:59;16.80;59.30
68719;DHT22;55696;52.138;5.444;2022-07-06T01:38:26;16.80;59.40
68719;DHT22;55696;52.138;5.444;2022-07-06T01:40:52;16.50;59.60
68719;DHT22;55696;52.138;5.444;2022-07-06T01:43:19;16.80;59.90
68719;DHT22;55696;52.138;5.444;2022-07-06T01:45:46;16.80;59.80
68719;DHT22;55696;52.138;5.444;2022-07-06T01:48:13;16.90;59.80
68719;DHT22;55696;52.138;5.444;2022-07-06T01:50:39;16.90;59.60
68719;DHT22;55696;52.138;5.444;2022-07-06T01:53:06;17.00;59.50
68719;DHT22;55696;52.138;5.444;2022-07-06T01:55:33;17.00;59.40
68719;DHT22;55696;52.138;5.444;2022-07-06T01:58:00;17.00;59.40
68719;DHT22;55696;52.138;5.444;2022-07-06T02:00:26;17.00;59.40
68719;DHT22;55696;52.138;5.444;2022-07-06T02:02:53;16.90;59.40
68719;DHT22;55696;52.138;5.444;2022-07-06T02:05:20;16.90;59.40
68719;DHT22;55696;52.138;5.444;2022-07-06T02:07:48;16.80;59.60
68719;DHT22;55696;52.138;5.444;2022-07-06T02:10:14;16.90;59.70
68719;DHT22;55696;52.138;5.444;2022-07-06T02:12:42;16.90;59.70
68719;DHT22;55696;52.138;5.444;2022-07-06T02:15:09;16.90;59.70
68719;DHT22;55696;52.138;5.444;2022-07-06T02:17:38;16.90;59.70
68719;DHT22;55696;52.138;5.444;2022-07-06T02:20:05;16.90;59.60
68719;DHT22;55696;52.138;5.444;2022-07-06T02:22:32;17.00;59.60
68719;DHT22;55696;52.138;5.444;2022-07-06T02:25:00;17.00;59.40
68719;DHT22;55696;52.138;5.444;2022-07-06T02:27:27;16.90;59.70
68719;DHT22;55696;52.138;5.444;2022-07-06T02:29:53;16.80;59.50
68719;DHT22;55696;52.138;5.444;2022-07-06T02:32:20;16.90;59.50
68719;DHT22;55696;52.138;5.444;2022-07-06T02:34:48;16.80;59.50
68719;DHT22;55696;52.138;5.444;2022-07-06T02:37:16;16.70;59.80
68719;DHT22;55696;52.138;5.444;2022-07-06T02:39:42;16.70;60.00
68719;DHT22;55696;52.138;5.444;2022-07-06T02:42:09;16.60;60.20
68719;DHT22;55696;52.138;5.444;2022-07-06T02:44:36;16.60;60.30
68719;DHT22;55696;52.138;5.444;2022-07-06T02:47:03;16.70;60.40
68719;DHT22;55696;52.138;5.444;2022-07-06T02:49:30;16.60;60.30
68719;DHT22;55696;52.138;5.444;2022-07-06T02:51:57;16.70;60.30
68719;DHT22;55696;52.138;5.444;2022-07-06T02:54:24;16.80;60.20
68719;DHT22;55696;52.138;5.444;2022-07-06T02:56:51;16.80;60.20
68719;DHT22;55696;52.138;5.444;2022-07-06T02:59:20;16.80;60.20
68719;DHT22;55696;52.138;5.444;2022-07-06T03:01:48;16.60;60.30
68719;DHT22;55696;52.138;5.444;2022-07-06T03:04:16;16.70;60.40
68719;DHT22;55696;52.138;5.444;2022-07-06T03:06:43;16.70;60.80
68719;DHT22;55696;52.138;5.444;2022-07-06T03:09:10;16.70;60.90
68719;DHT22;55696;52.138;5.444;2022-07-06T03:11:38;16.70;60.70
68719;DHT22;55696;52.138;5.444;2022-07-06T03:14:05;16.80;60.70
68719;DHT22;55696;52.138;5.444;2022-07-06T03:16:35;16.80;60.60
68719;DHT22;55696;52.138;5.444;2022-07-06T03:19:02;16.80;60.40
68719;DHT22;55696;52.138;5.444;2022-07-06T03:21:29;16.70;60.40
68719;DHT22;55696;52.138;5.444;2022-07-06T03:23:56;17.00;60.60
68719;DHT22;55696;52.138;5.444;2022-07-06T03:26:24;17.10;60.40
68719;DHT22;55696;52.138;5.444;2022-07-06T03:28:51;17.10;60.20
68719;DHT22;55696;52.138;5.444;2022-07-06T03:31:18;17.20;60.20
68719;DHT22;55696;52.138;5.444;2022-07-06T03:33:46;17.20;60.20
68719;DHT22;55696;52.138;5.444;2022-07-06T03:36:13;17.40;60.20
68719;DHT22;55696;52.138;5.444;2022-07-06T03:38:39;17.30;60.00
68719;DHT22;55696;52.138;5.444;2022-07-06T03:41:06;17.30;59.90
68719;DHT22;55696;52.138;5.444;2022-07-06T03:43:33;17.30;60.00
68719;DHT22;55696;52.138;5.444;2022-07-06T03:46:00;17.40;60.00
68719;DHT22;55696;52.138;5.444;2022-07-06T03:48:27;17.30;60.10
68719;DHT22;55696;52.138;5.444;2022-07-06T03:50:54;17.30;61.00
68719;DHT22;55696;52.138;5.444;2022-07-06T03:53:22;17.20;60.30
68719;DHT22;55696;52.138;5.444;2022-07-06T03:55:49;17.40;60.30
68719;DHT22;55696;52.138;5.444;2022-07-06T03:58:35;17.40;60.10
68719;DHT22;55696;52.138;5.444;2022-07-06T04:01:02;17.50;60.20
68719;DHT22;55696;52.138;5.444;2022-07-06T04:03:29;17.50;60.10
68719;DHT22;55696;52.138;5.444;2022-07-06T04:06:00;17.50;60.10
68719;DHT22;55696;52.138;5.444;2022-07-06T04:08:27;17.50;60.00
68719;DHT22;55696;52.138;5.444;2022-07-06T04:10:56;17.50;60.00
68719;DHT22;55696;52.138;5.444;2022-07-06T04:13:23;17.40;60.00
68719;DHT22;55696;52.138;5.444;2022-07-06T04:15:52;17.40;60.10
68719;DHT22;55696;52.138;5.444;2022-07-06T04:18:19;17.30;60.00
68719;DHT22;55696;52.138;5.444;2022-07-06T04:20:50;17.50;60.10
68719;DHT22;55696;52.138;5.444;2022-07-06T04:23:17;17.50;60.00
68719;DHT22;55696;52.138;5.444;2022-07-06T04:25:45;17.50;60.00
68719;DHT22;55696;52.138;5.444;2022-07-06T04:28:12;17.30;60.00
68719;DHT22;55696;52.138;5.444;2022-07-06T04:30:38;17.30;60.30
68719;DHT22;55696;52.138;5.444;2022-07-06T04:33:10;17.30;60.40
68719;DHT22;55696;52.138;5.444;2022-07-06T04:35:38;17.30;60.70
68719;DHT22;55696;52.138;5.444;2022-07-06T04:38:05;17.30;60.60
68719;DHT22;55696;52.138;5.444;2022-07-06T04:40:32;17.50;60.80
68719;DHT22;55696;52.138;5.444;2022-07-06T04:43:03;17.30;60.80
68719;DHT22;55696;52.138;5.444;2022-07-06T04:45:30;17.40;60.70
68719;DHT22;55696;52.138;5.444;2022-07-06T04:47:58;17.30;61.50
68719;DHT22;55696;52.138;5.444;2022-07-06T04:50:25;17.50;60.50
68719;DHT22;55696;52.138;5.444;2022-07-06T04:52:56;17.50;60.40
68719;DHT22;55696;52.138;5.444;2022-07-06T04:55:23;17.60;60.30
68719;DHT22;55696;52.138;5.444;2022-07-06T04:57:50;17.70;60.30
68719;DHT22;55696;52.138;5.444;2022-07-06T05:00:19;17.50;60.10
68719;DHT22;55696;52.138;5.444;2022-07-06T05:02:47;17.70;60.00
68719;DHT22;55696;52.138;5.444;2022-07-06T05:05:14;17.80;60.00
68719;DHT22;55696;52.138;5.444;2022-07-06T05:07:41;17.80;59.80
68719;DHT22;55696;52.138;5.444;2022-07-06T05:10:10;17.80;59.80
68719;DHT22;55696;52.138;5.444;2022-07-06T05:12:39;17.90;60.00
68719;DHT22;55696;52.138;5.444;2022-07-06T05:15:07;17.90;59.70
68719;DHT22;55696;52.138;5.444;2022-07-06T05:17:34;18.00;59.60
68719;DHT22;55696;52.138;5.444;2022-07-06T05:20:01;18.00;59.40
68719;DHT22;55696;52.138;5.444;2022-07-06T05:22:32;18.10;59.20
68719;DHT22;55696;52.138;5.444;2022-07-06T05:24:58;18.20;59.00
68719;DHT22;55696;52.138;5.444;2022-07-06T05:27:25;18.30;58.90
68719;DHT22;55696;52.138;5.444;2022-07-06T05:29:52;18.30;58.80
68719;DHT22;55696;52.138;5.444;2022-07-06T05:32:19;18.30;58.60
68719;DHT22;55696;52.138;5.444;2022-07-06T05:34:47;18.40;58.40
68719;DHT22;55696;52.138;5.444;2022-07-06T05:37:13;18.40;58.20
68719;DHT22;55696;52.138;5.444;2022-07-06T05:39:41;18.50;58.10
68719;DHT22;55696;52.138;5.444;2022-07-06T05:42:10;18.50;58.10
68719;DHT22;55696;52.138;5.444;2022-07-06T05:44:37;18.50;58.10
68719;DHT22;55696;52.138;5.444;2022-07-06T05:47:05;18.60;57.90
68719;DHT22;55696;52.138;5.444;2022-07-06T05:49:51;18.70;58.00
68719;DHT22;55696;52.138;5.444;2022-07-06T05:52:44;18.70;57.60
68719;DHT22;55696;52.138;5.444;2022-07-06T05:55:12;18.70;57.60
68719;DHT22;55696;52.138;5.444;2022-07-06T05:57:40;18.80;57.70
68719;DHT22;55696;52.138;5.444;2022-07-06T06:00:08;18.90;57.60
68719;DHT22;55696;52.138;5.444;2022-07-06T06:02:42;19.00;57.40
68719;DHT22;55696;52.138;5.444;2022-07-06T06:05:14;18.90;57.10
68719;DHT22;55696;52.138;5.444;2022-07-06T06:07:51;19.00;56.80
68719;DHT22;55696;52.138;5.444;2022-07-06T06:10:22;19.10;56.60
68719;DHT22;55696;52.138;5.444;2022-07-06T06:12:53;19.10;56.40
68719;DHT22;55696;52.138;5.444;2022-07-06T06:15:20;19.00;56.60
68719;DHT22;55696;52.138;5.444;2022-07-06T06:17:47;19.10;56.40
68719;DHT22;55696;52.138;5.444;2022-07-06T06:20:15;19.20;56.30
68719;DHT22;55696;52.138;5.444;2022-07-06T06:25:16;19.30;56.40
68719;DHT22;55696;52.138;5.444;2022-07-06T06:27:43;19.30;55.70
68719;DHT22;55696;52.138;5.444;2022-07-06T06:30:11;19.20;55.50
68719;DHT22;55696;52.138;5.444;2022-07-06T06:32:39;19.40;55.90
68719;DHT22;55696;52.138;5.444;2022-07-06T06:35:06;19.40;55.80
68719;DHT22;55696;52.138;5.444;2022-07-06T06:37:33;19.50;56.00
68719;DHT22;55696;52.138;5.444;2022-07-06T06:40:04;19.50;55.40
68719;DHT22;55696;52.138;5.444;2022-07-06T06:42:32;19.70;55.10
68719;DHT22;55696;52.138;5.444;2022-07-06T06:44:59;19.50;54.50
68719;DHT22;55696;52.138;5.444;2022-07-06T06:47:26;19.70;54.40
68719;DHT22;55696;52.138;5.444;2022-07-06T06:49:53;19.80;54.50
68719;DHT22;55696;52.138;5.444;2022-07-06T06:52:20;19.90;54.50
68719;DHT22;55696;52.138;5.444;2022-07-06T06:55:06;19.80;54.30
68719;DHT22;55696;52.138;5.444;2022-07-06T06:57:33;20.10;54.10
68719;DHT22;55696;52.138;5.444;2022-07-06T06:59:59;20.10;53.70
68719;DHT22;55696;52.138;5.444;2022-07-06T07:02:26;20.20;53.30
68719;DHT22;55696;52.138;5.444;2022-07-06T07:04:53;20.20;52.60
68719;DHT22;55696;52.138;5.444;2022-07-06T07:07:20;20.30;52.60
68719;DHT22;55696;52.138;5.444;2022-07-06T07:09:47;20.30;52.30
68719;DHT22;55696;52.138;5.444;2022-07-06T07:12:13;20.50;52.00
68719;DHT22;55696;52.138;5.444;2022-07-06T07:14:44;20.70;51.50
68719;DHT22;55696;52.138;5.444;2022-07-06T07:17:10;20.60;51.10
68719;DHT22;55696;52.138;5.444;2022-07-06T07:19:38;20.50;50.50
68719;DHT22;55696;52.138;5.444;2022-07-06T07:22:05;20.60;50.60
68719;DHT22;55696;52.138;5.444;2022-07-06T07:24:32;20.60;50.40
68719;DHT22;55696;52.138;5.444;2022-07-06T07:26:59;20.70;50.10
68719;DHT22;55696;52.138;5.444;2022-07-06T07:29:25;20.80;49.80
68719;DHT22;55696;52.138;5.444;2022-07-06T07:31:52;20.70;49.30
68719;DHT22;55696;52.138;5.444;2022-07-06T07:34:19;20.80;49.10
68719;DHT22;55696;52.138;5.444;2022-07-06T07:36:46;21.40;49.00
68719;DHT22;55696;52.138;5.444;2022-07-06T07:39:13;20.60;48.10
68719;DHT22;55696;52.138;5.444;2022-07-06T07:41:39;20.80;48.10
68719;DHT22;55696;52.138;5.444;2022-07-06T07:44:06;20.80;48.00
68719;DHT22;55696;52.138;5.444;2022-07-06T07:46:33;20.80;47.90
68719;DHT22;55696;52.138;5.444;2022-07-06T07:49:00;20.70;47.80
68719;DHT22;55696;52.138;5.444;2022-07-06T07:51:28;20.80;47.60
68719;DHT22;55696;52.138;5.444;2022-07-06T07:53:55;21.00;47.30
68719;DHT22;55696;52.138;5.444;2022-07-06T07:56:22;21.50;46.50
68719;DHT22;55696;52.138;5.444;2022-07-06T07:58:49;20.90;45.70
68719;DHT22;55696;52.138;5.444;2022-07-06T08:01:20;20.90;46.00
68719;DHT22;55696;52.138;5.444;2022-07-06T08:03:47;20.80;46.00
68719;DHT22;55696;52.138;5.444;2022-07-06T08:06:14;20.80;46.10
68719;DHT22;55696;52.138;5.444;2022-07-06T08:08:40;21.10;45.80
68719;DHT22;55696;52.138;5.444;2022-07-06T08:11:07;21.40;45.50
68719;DHT22;55696;52.138;5.444;2022-07-06T08:13:44;22.10;45.20
68719;DHT22;55696;52.138;5.444;2022-07-06T08:16:11;21.60;45.00
68719;DHT22;55696;52.138;5.444;2022-07-06T08:18:38;21.70;45.00
68719;DHT22;55696;52.138;5.444;2022-07-06T08:21:06;21.80;44.90
68719;DHT22;55696;52.138;5.444;2022-07-06T08:23:54;21.90;45.00
68719;DHT22;55696;52.138;5.444;2022-07-06T08:26:21;22.30;44.70
68719;DHT22;55696;52.138;5.444;2022-07-06T08:28:48;22.10;44.30
68719;DHT22;55696;52.138;5.444;2022-07-06T08:31:15;22.60;44.30
68719;DHT22;55696;52.138;5.444;2022-07-06T08:34:03;22.20;43.80
68719;DHT22;55696;52.138;5.444;2022-07-06T08:36:29;22.50;43.50
68719;DHT22;55696;52.138;5.444;2022-07-06T08:38:56;22.50;43.00
68719;DHT22;55696;52.138;5.444;2022-07-06T08:41:25;23.00;42.80
68719;DHT22;55696;52.138;5.444;2022-07-06T08:43:53;22.60;42.60
68719;DHT22;55696;52.138;5.444;2022-07-06T08:46:21;22.40;42.40
68719;DHT22;55696;52.138;5.444;2022-07-06T08:48:48;22.20;42.50
68719;DHT22;55696;52.138;5.444;2022-07-06T08:51:16;22.10;43.50
68719;DHT22;55696;52.138;5.444;2022-07-06T08:53:45;22.00;42.30
68719;DHT22;55696;52.138;5.444;2022-07-06T08:56:12;22.10;42.40
68719;DHT22;55696;52.138;5.444;2022-07-06T08:58:40;22.10;42.10
68719;DHT22;55696;52.138;5.444;2022-07-06T09:01:11;21.80;41.60
68719;DHT22;55696;52.138;5.444;2022-07-06T09:03:40;21.90;42.20
68719;DHT22;55696;52.138;5.444;2022-07-06T09:06:08;21.90;42.30
68719;DHT22;55696;52.138;5.444;2022-07-06T09:08:35;21.90;42.40
68719;DHT22;55696;52.138;5.444;2022-07-06T09:11:03;22.00;42.50
68719;DHT22;55696;52.138;5.444;2022-07-06T09:13:31;22.70;43.00
68719;DHT22;55696;52.138;5.444;2022-07-06T09:16:09;22.20;42.10
68719;DHT22;55696;52.138;5.444;2022-07-06T09:18:57;22.40;41.80
68719;DHT22;55696;52.138;5.444;2022-07-06T09:21:32;22.60;41.50
68719;DHT22;55696;52.138;5.444;2022-07-06T09:24:01;22.70;40.30
68719;DHT22;55696;52.138;5.444;2022-07-06T09:26:31;22.60;40.50
68719;DHT22;55696;52.138;5.444;2022-07-06T09:28:58;23.10;40.80
68719;DHT22;55696;52.138;5.444;2022-07-06T09:31:26;23.10;40.60
68719;DHT22;55696;52.138;5.444;2022-07-06T09:33:55;23.10;40.60
68719;DHT22;55696;52.138;5.444;2022-07-06T09:36:38;23.20;40.50
68719;DHT22;55696;52.138;5.444;2022-07-06T09:39:25;23.20;40.50
68719;DHT22;55696;52.138;5.444;2022-07-06T09:41:55;23.10;40.20
68719;DHT22;55696;52.138;5.444;2022-07-06T09:44:32;23.20;40.10
68719;DHT22;55696;52.138;5.444;2022-07-06T09:47:02;23.30;40.00
68719;DHT22;55696;52.138;5.444;2022-07-06T09:49:29;23.30;40.10
68719;DHT22;55696;52.138;5.444;2022-07-06T09:51:58;23.20;40.20
68719;DHT22;55696;52.138;5.444;2022-07-06T09:54:25;23.20;40.10
68719;DHT22;55696;52.138;5.444;2022-07-06T09:56:54;23.70;41.50
68719;DHT22;55696;52.138;5.444;2022-07-06T09:59:24;23.20;40.60
68719;DHT22;55696;52.138;5.444;2022-07-06T10:01:56;23.30;40.50
68719;DHT22;55696;52.138;5.444;2022-07-06T10:04:25;23.40;40.70
68719;DHT22;55696;52.138;5.444;2022-07-06T10:06:53;23.30;40.00
68719;DHT22;55696;52.138;5.444;2022-07-06T10:09:21;23.40;40.00
68719;DHT22;55696;52.138;5.444;2022-07-06T10:11:52;23.50;40.20
68719;DHT22;55696;52.138;5.444;2022-07-06T10:14:24;23.50;40.30
68719;DHT22;55696;52.138;5.444;2022-07-06T10:16:51;23.50;40.50
68719;DHT22;55696;52.138;5.444;2022-07-06T10:19:20;23.40;39.00
68719;DHT22;55696;52.138;5.444;2022-07-06T10:21:48;23.20;38.70
68719;DHT22;55696;52.138;5.444;2022-07-06T10:24:15;23.40;38.70
68719;DHT22;55696;52.138;5.444;2022-07-06T10:26:42;23.50;38.80
68719;DHT22;55696;52.138;5.444;2022-07-06T10:29:09;23.60;38.20
68719;DHT22;55696;52.138;5.444;2022-07-06T10:31:40;23.80;37.60
68719;DHT22;55696;52.138;5.444;2022-07-06T10:34:11;23.70;37.50
68719;DHT22;55696;52.138;5.444;2022-07-06T10:36:40;23.80;37.80
68719;DHT22;55696;52.138;5.444;2022-07-06T10:39:07;23.80;38.00
68719;DHT22;55696;52.138;5.444;2022-07-06T10:41:53;24.00;37.90
68719;DHT22;55696;52.138;5.444;2022-07-06T10:44:23;24.00;37.50
68719;DHT22;55696;52.138;5.444;2022-07-06T10:46:59;24.00;37.30
68719;DHT22;55696;52.138;5.444;2022-07-06T10:49:26;23.80;37.20
68719;DHT22;55696;52.138;5.444;2022-07-06T10:52:17;24.20;37.60
68719;DHT22;55696;52.138;5.444;2022-07-06T10:54:44;24.10;37.20
68719;DHT22;55696;52.138;5.444;2022-07-06T10:57:13;24.60;37.80
68719;DHT22;55696;52.138;5.444;2022-07-06T11:00:04;24.00;37.30
68719;DHT22;55696;52.138;5.444;2022-07-06T11:02:38;23.80;37.60
68719;DHT22;55696;52.138;5.444;2022-07-06T11:05:11;23.70;37.80
68719;DHT22;55696;52.138;5.444;2022-07-06T11:07:51;23.80;37.60
68719;DHT22;55696;52.138;5.444;2022-07-06T11:10:17;23.90;37.50
68719;DHT22;55696;52.138;5.444;2022-07-06T11:12:45;24.10;37.60
68719;DHT22;55696;52.138;5.444;2022-07-06T11:15:11;24.20;37.50
68719;DHT22;55696;52.138;5.444;2022-07-06T11:17:38;24.20;37.30
68719;DHT22;55696;52.138;5.444;2022-07-06T11:20:10;22.50;36.00
68719;DHT22;55696;52.138;5.444;2022-07-06T11:22:38;24.30;37.30
68719;DHT22;55696;52.138;5.444;2022-07-06T11:25:06;24.00;37.10
68719;DHT22;55696;52.138;5.444;2022-07-06T11:27:34;24.10;37.90
68719;DHT22;55696;52.138;5.444;2022-07-06T11:30:01;24.00;37.50
68719;DHT22;55696;52.138;5.444;2022-07-06T11:32:28;24.10;38.40
68719;DHT22;55696;52.138;5.444;2022-07-06T11:34:55;24.20;38.20
68719;DHT22;55696;52.138;5.444;2022-07-06T11:37:22;24.50;38.80
68719;DHT22;55696;52.138;5.444;2022-07-06T11:39:49;24.60;39.70
68719;DHT22;55696;52.138;5.444;2022-07-06T11:42:18;24.60;37.90
68719;DHT22;55696;52.138;5.444;2022-07-06T11:44:45;24.20;36.90
68719;DHT22;55696;52.138;5.444;2022-07-06T11:47:13;24.40;37.00
68719;DHT22;55696;52.138;5.444;2022-07-06T11:49:50;24.60;36.90
68719;DHT22;55696;52.138;5.444;2022-07-06T11:52:17;25.00;36.40
68719;DHT22;55696;52.138;5.444;2022-07-06T11:54:44;25.30;36.00
68719;DHT22;55696;52.138;5.444;2022-07-06T11:57:11;25.40;34.80
68719;DHT22;55696;52.138;5.444;2022-07-06T11:59:40;25.40;34.40
68719;DHT22;55696;52.138;5.444;2022-07-06T12:02:10;25.30;34.80
68719;DHT22;55696;52.138;5.444;2022-07-06T12:04:40;25.20;35.10
68719;DHT22;55696;52.138;5.444;2022-07-06T12:07:09;25.30;34.50
68719;DHT22;55696;52.138;5.444;2022-07-06T12:09:39;25.20;34.40
68719;DHT22;55696;52.138;5.444;2022-07-06T12:12:07;25.70;34.30
68719;DHT22;55696;52.138;5.444;2022-07-06T12:14:36;26.00;34.10
68719;DHT22;55696;52.138;5.444;2022-07-06T12:17:08;26.00;32.90
68719;DHT22;55696;52.138;5.444;2022-07-06T12:19:36;26.10;33.20
68719;DHT22;55696;52.138;5.444;2022-07-06T12:22:05;26.30;33.10
68719;DHT22;55696;52.138;5.444;2022-07-06T12:24:34;26.30;33.10
68719;DHT22;55696;52.138;5.444;2022-07-06T12:27:15;27.00;33.10
68719;DHT22;55696;52.138;5.444;2022-07-06T12:29:43;26.40;32.50
68719;DHT22;55696;52.138;5.444;2022-07-06T12:32:20;26.50;32.60
68719;DHT22;55696;52.138;5.444;2022-07-06T12:35:05;26.50;32.90
68719;DHT22;55696;52.138;5.444;2022-07-06T12:37:33;26.30;33.20
68719;DHT22;55696;52.138;5.444;2022-07-06T12:39:59;26.40;33.20
68719;DHT22;55696;52.138;5.444;2022-07-06T12:42:27;26.60;32.90
68719;DHT22;55696;52.138;5.444;2022-07-06T12:44:55;26.60;32.60
68719;DHT22;55696;52.138;5.444;2022-07-06T12:47:23;26.60;32.00
68719;DHT22;55696;52.138;5.444;2022-07-06T12:50:11;26.70;32.00
68719;DHT22;55696;52.138;5.444;2022-07-06T12:52:39;26.90;31.70
68719;DHT22;55696;52.138;5.444;2022-07-06T12:55:07;27.00;31.40
68719;DHT22;55696;52.138;5.444;2022-07-06T12:57:49;27.00;30.70
68719;DHT22;55696;52.138;5.444;2022-07-06T13:00:17;27.00;30.80
68719;DHT22;55696;52.138;5.444;2022-07-06T13:02:46;27.10;30.40
68719;DHT22;55696;52.138;5.444;2022-07-06T13:05:34;27.10;30.20
68719;DHT22;55696;52.138;5.444;2022-07-06T13:08:02;26.80;30.40
68719;DHT22;55696;52.138;5.444;2022-07-06T13:10:29;26.30;30.40
68719;DHT22;55696;52.138;5.444;2022-07-06T13:12:57;26.90;31.20
68719;DHT22;55696;52.138;5.444;2022-07-06T13:15:24;27.20;30.80
68719;DHT22;55696;52.138;5.444;2022-07-06T13:17:51;27.20;31.20
68719;DHT22;55696;52.138;5.444;2022-07-06T13:20:18;27.30;31.30
68719;DHT22;55696;52.138;5.444;2022-07-06T13:22:45;27.20;31.00
68719;DHT22;55696;52.138;5.444;2022-07-06T13:25:12;27.10;30.90
68719;DHT22;55696;52.138;5.444;2022-07-06T13:27:40;26.60;30.70
68719;DHT22;55696;52.138;5.444;2022-07-06T13:30:07;26.50;31.30
68719;DHT22;55696;52.138;5.444;2022-07-06T13:32:34;26.30;31.60
68719;DHT22;55696;52.138;5.444;2022-07-06T13:35:01;26.10;31.60
68719;DHT22;55696;52.138;5.444;2022-07-06T13:37:27;26.20;31.80
68719;DHT22;55696;52.138;5.444;2022-07-06T13:39:54;26.20;31.60
68719;DHT22;55696;52.138;5.444;2022-07-06T13:42:21;26.10;31.70
68719;DHT22;55696;52.138;5.444;2022-07-06T13:44:48;26.20;31.90
68719;DHT22;55696;52.138;5.444;2022-07-06T13:47:14;26.40;31.90
68719;DHT22;55696;52.138;5.444;2022-07-06T13:49:41;26.60;31.80
68719;DHT22;55696;52.138;5.444;2022-07-06T13:52:09;26.90;31.10
68719;DHT22;55696;52.138;5.444;2022-07-06T13:54:36;27.10;31.70
68719;DHT22;55696;52.138;5.444;2022-07-06T13:57:04;27.00;30.70
68719;DHT22;55696;52.138;5.444;2022-07-06T13:59:32;27.10;30.90
68719;DHT22;55696;52.138;5.444;2022-07-06T14:01:59;27.10;31.40
68719;DHT22;55696;52.138;5.444;2022-07-06T14:04:26;27.20;31.60
68719;DHT22;55696;52.138;5.444;2022-07-06T14:06:53;26.90;31.50
68719;DHT22;55696;52.138;5.444;2022-07-06T14:09:19;26.80;32.10
68719;DHT22;55696;52.138;5.444;2022-07-06T14:11:46;26.60;32.20
68719;DHT22;55696;52.138;5.444;2022-07-06T14:14:13;26.40;32.20
68719;DHT22;55696;52.138;5.444;2022-07-06T14:16:40;26.60;32.60
68719;DHT22;55696;52.138;5.444;2022-07-06T14:19:08;26.60;32.50
68719;DHT22;55696;52.138;5.444;2022-07-06T14:21:34;26.60;32.30
68719;DHT22;55696;52.138;5.444;2022-07-06T14:24:02;26.70;32.60
68719;DHT22;55696;52.138;5.444;2022-07-06T14:26:29;26.50;32.80
68719;DHT22;55696;52.138;5.444;2022-07-06T14:28:55;26.20;32.90
68719;DHT22;55696;52.138;5.444;2022-07-06T14:31:22;25.90;32.80
68719;DHT22;55696;52.138;5.444;2022-07-06T14:33:50;25.70;33.60
68719;DHT22;55696;52.138;5.444;2022-07-06T14:36:17;25.60;34.00
68719;DHT22;55696;52.138;5.444;2022-07-06T14:38:44;25.30;34.60
68719;DHT22;55696;52.138;5.444;2022-07-06T14:41:11;25.10;34.80
68719;DHT22;55696;52.138;5.444;2022-07-06T14:43:38;25.00;34.90
68719;DHT22;55696;52.138;5.444;2022-07-06T14:46:05;24.70;35.10
68719;DHT22;55696;52.138;5.444;2022-07-06T14:48:32;24.70;35.50
68719;DHT22;55696;52.138;5.444;2022-07-06T14:50:58;24.60;35.80
68719;DHT22;55696;52.138;5.444;2022-07-06T14:53:25;24.80;35.80
68719;DHT22;55696;52.138;5.444;2022-07-06T14:55:53;24.70;35.70
68719;DHT22;55696;52.138;5.444;2022-07-06T14:58:20;24.70;36.00
68719;DHT22;55696;52.138;5.444;2022-07-06T15:00:49;24.40;35.90
68719;DHT22;55696;52.138;5.444;2022-07-06T15:03:25;25.10;36.70
68719;DHT22;55696;52.138;5.444;2022-07-06T15:05:52;24.50;36.60
68719;DHT22;55696;52.138;5.444;2022-07-06T15:08:19;24.50;36.70
68719;DHT22;55696;52.138;5.444;2022-07-06T15:10:46;24.60;36.80
68719;DHT22;55696;52.138;5.444;2022-07-06T15:13:12;24.70;36.80
68719;DHT22;55696;52.138;5.444;2022-07-06T15:15:39;24.60;37.00
68719;DHT22;55696;52.138;5.444;2022-07-06T15:18:25;24.50;37.00
68719;DHT22;55696;52.138;5.444;2022-07-06T15:20:52;24.50;37.30
68719;DHT22;55696;52.138;5.444;2022-07-06T15:23:19;24.80;37.60
68719;DHT22;55696;52.138;5.444;2022-07-06T15:25:46;24.30;37.50
68719;DHT22;55696;52.138;5.444;2022-07-06T15:28:22;24.40;37.50
68719;DHT22;55696;52.138;5.444;2022-07-06T15:30:50;24.00;37.50
68719;DHT22;55696;52.138;5.444;2022-07-06T15:33:17;24.20;38.10
68719;DHT22;55696;52.138;5.444;2022-07-06T15:35:44;24.20;38.20
68719;DHT22;55696;52.138;5.444;2022-07-06T15:38:11;24.20;38.30
68719;DHT22;55696;52.138;5.444;2022-07-06T15:40:37;24.10;38.60
68719;DHT22;55696;52.138;5.444;2022-07-06T15:43:07;24.10;38.50